Airfield :
LOGIN :

Register | Disclaimer

   EN    FR    IT 

 










Legend :    VFR   Marginal VFR   IFR   Intensive IFR   Very Intensive IFR
Visi :
Ceiling :
>= 8 km
>= 3000ft
5 to 8 km
1000 to 3000 ft
1500m to 5 km
500 to 1000 ft
800 to 1500m
200 to 500 ft
< 800m
< 200 ft
Symbols :   Thunderstorms  Fog  Heavy snow  Heavy precipitations  Wind > 20 kt
SIGMETs :     Misc.  Thunderstorms  Icing  Turbulence  Mountain Waves  Volcanic Ashes







- Airport Elevation : 218 ft


EGYD - RAF Cranwell

CURRENT METAR :
  • 251400Z 16009KT 9999 FEW020CB 14/08 Q0998 RETS BLU TEMPO 3000 TSRA BKN020CB WHT

EXPIRED METARs :
  • 251343Z 15009KT 4000 TSRA FEW020CB 13/11 Q0998 GRN TEMPO 9999 NSW BLU
  • 251322Z 16012KT 4000 -SHRA SCT020CB SCT030 12/08 Q0998 GRN TEMPO 3000 +TSRA SCT020CB YLO1
  • 251250Z 17011KT 9999 FEW020CB 14/10 Q0998 BLU TEMPO 3000 TSRA SCT024CB YLO1
  • 251227Z 17008KT 9999 FEW020CB BKN045 12/09 Q0998 BLU TEMPO 3000 TSRA BKN024CB YLO1
  • 251204Z 19009KT 8000 -SHRA FEW019CB SCT024 BKN040 10/08 Q0998 WHT TEMPO FEW025 CB BLU
  • 251150Z 19020KT 3500 -SHRA FEW020CB SCT024 10/07 Q0998 YLO1 TEMPO 9999 NSW FEW025CB BLU

TAF TAF EGYD
Valid from the 25 at 15:00 until the 25 at 19:00 UTC


251347Z 2515/2519 17015KT 9999 SCT045
PROB40
TEMPO 2515/2519 17016G26KT 3000 TSRA BKN024CB
No reported NOTAMs for that airfield.
2 SIGMETs reported for the London FIR (EGTT) :
 
Frequent thunderstorms
EGTT SIGMET 03 VALID 251410/251600 EGRR
EGTT LONDON FIR FRQ TS FCST WI N5310 W00100 - N5249 W00049 - N5243 W00303 - N5333 W00311 - N5310 W00100 TOP FL270 MOV N 15KT NC=
Embedded thunderstorms
EGTT SIGMET 02 VALID 251410/251700 EGRR
EGTT LONDON FIR EMBD TS FCST WI N5429 W00033 - N5325 E00024 - N5404 W00301 - N5438 W00309 - N5429 W00033 TOP FL270 MOV N 15KT NC=



MET'MAP, your aeronautical weather chart ! - Copyright ORBIFLY December 2007 - Disclaimer

ORBIFLY MET'MAP TEAM :

Programming & Development : Alexandra Zaïnal
Concept & Development : Baudouin d'Aumeries
Co-Development & Prog : Marc-Olivier Méhu
Technical & hardware support : Manuel Goepfert

Contact : metmap@orbifly.com




SOURCES & CREDITS :

   NOAA